PWSweather.com
Personal Weather Stations
Station Observations
JRARGWX75
Villages Of Bridgestone, Spring, TX 77379

Villages Of BridgestoneSpring, TX 77379

Lat: 30.053743, Lon: -95.494539

Elevation: 139

Station Type: Davis Vantage Pro 2 Plus +FARS

https://www.txweather.org

Latest ConditionsUpdated 11:42:02 AM CST Sunday, Jan 26, 2020
Currently Today's Max Today's Min Today's Average
Temperature 68.5°F20.3°C 68.5°F20.3°C 57.4°F14.1°C 59.6°F15.3°C
Dew Point 59.9°F15.5°C 60.4°F15.8°C 53.8°F12.1°C 57.3°F14.1°C
Winds 4.0 mph NW6.4 kmh NW 8.1 mph -13.0 kmh - - 2.0 mph 3.2 kmh
Wind Gusts 3.1 mph5.0 kmh 10.5 mph16.9 kmh - -
Humidity 74% 96% 74% 92%
Pressure 29.98 in1015.2 mb 30.03 in1016.9 mb 29.94 in1013.9 mb -
Precipitation - 0.05 in1.3 mm - -
Hour Temp Dew Point Humidity Winds Wind Gusts Pressure Precip Precip Rate Daily Precip Total
11:42 AM 68.5°F20.3°C 59.9°F15.5°C 74% 4.0 mph NW6.4 kmh NW 3.1 mph5.0 kmh 29.98 in1015.2 mb - 0.00 in0.0 mm 0.05 in1.3 mm
11:37 AM 67.8°F19.9°C 59.9°F15.5°C 76% 6.9 mph N11.1 kmh N 5.4 mph8.7 kmh 29.99 in1015.6 mb - 0.00 in0.0 mm 0.05 in1.3 mm
11:32 AM 67.3°F19.6°C 59.5°F15.3°C 76% 4.0 mph NW6.4 kmh NW 3.1 mph5.0 kmh 29.99 in1015.6 mb - 0.00 in0.0 mm 0.05 in1.3 mm
11:27 AM 67.1°F19.5°C 59.4°F15.2°C 76% 3.6 mph WSW5.8 kmh WSW 2.0 mph3.2 kmh 29.99 in1015.6 mb - 0.00 in0.0 mm 0.05 in1.3 mm
11:22 AM 66.4°F19.1°C 59.0°F15.0°C 77% 6.3 mph NNW10.1 kmh NNW 5.4 mph8.7 kmh 29.99 in1015.6 mb - 0.00 in0.0 mm 0.05 in1.3 mm
11:17 AM 67.5°F19.7°C 59.5°F15.3°C 76% 5.4 mph N8.7 kmh N 7.4 mph11.9 kmh 30.00 in1015.9 mb - 0.00 in0.0 mm 0.05 in1.3 mm
11:12 AM 66.4°F19.1°C 59.4°F15.2°C 78% 6.3 mph W10.1 kmh W 6.3 mph10.1 kmh 30.00 in1015.9 mb - 0.00 in0.0 mm 0.05 in1.3 mm
11:07 AM 65.7°F18.7°C 59.0°F15.0°C 79% 6.7 mph NNW10.8 kmh NNW 7.4 mph11.9 kmh 30.00 in1015.9 mb - 0.00 in0.0 mm 0.05 in1.3 mm
11:02 AM 66.2°F19.0°C 59.9°F15.5°C 80% 4.7 mph N7.6 kmh N 3.1 mph5.0 kmh 30.00 in1015.9 mb - 0.00 in0.0 mm 0.05 in1.3 mm
10:57 AM 65.5°F18.6°C 58.8°F14.9°C 79% 5.4 mph NNW8.7 kmh NNW 4.3 mph6.9 kmh 30.00 in1015.9 mb - 0.00 in0.0 mm 0.05 in1.3 mm
10:52 AM 65.8°F18.8°C 59.2°F15.1°C 79% 4.7 mph N7.6 kmh N 3.1 mph5.0 kmh 30.00 in1015.9 mb - 0.00 in0.0 mm 0.05 in1.3 mm
10:47 AM 65.5°F18.6°C 59.2°F15.1°C 80% 8.1 mph N13.0 kmh N 6.3 mph10.1 kmh 30.00 in1015.9 mb - 0.00 in0.0 mm 0.05 in1.3 mm
10:42 AM 64.6°F18.1°C 58.6°F14.8°C 81% 6.0 mph NNW9.7 kmh NNW 6.3 mph10.1 kmh 30.00 in1015.9 mb - 0.00 in0.0 mm 0.05 in1.3 mm
10:37 AM 64.2°F17.9°C 59.4°F15.2°C 84% 6.5 mph N10.5 kmh N 10.5 mph16.9 kmh 30.01 in1016.3 mb - 0.00 in0.0 mm 0.05 in1.3 mm
10:32 AM 64.0°F17.8°C 58.8°F14.9°C 83% 5.1 mph NNW8.2 kmh NNW 3.1 mph5.0 kmh 30.01 in1016.3 mb - 0.00 in0.0 mm 0.05 in1.3 mm
10:27 AM 64.0°F17.8°C 59.4°F15.2°C 85% 5.8 mph NW9.3 kmh NW 4.3 mph6.9 kmh 30.01 in1016.3 mb - 0.00 in0.0 mm 0.05 in1.3 mm
10:22 AM 64.0°F17.8°C 59.7°F15.4°C 86% 6.9 mph N11.1 kmh N 8.5 mph13.7 kmh 30.01 in1016.3 mb - 0.00 in0.0 mm 0.05 in1.3 mm
10:17 AM 63.5°F17.5°C 59.5°F15.3°C 87% 4.9 mph N7.9 kmh N 3.1 mph5.0 kmh 30.01 in1016.3 mb - 0.00 in0.0 mm 0.05 in1.3 mm
10:12 AM 63.7°F17.6°C 60.1°F15.6°C 88% 3.8 mph WNW6.1 kmh WNW 7.4 mph11.9 kmh 30.01 in1016.3 mb - 0.00 in0.0 mm 0.05 in1.3 mm
10:07 AM 63.7°F17.6°C 60.4°F15.8°C 89% 3.8 mph NNW6.1 kmh NNW 6.3 mph10.1 kmh 30.01 in1016.3 mb - 0.00 in0.0 mm 0.05 in1.3 mm
10:02 AM 63.1°F17.3°C 59.9°F15.5°C 89% 4.5 mph NNW7.2 kmh NNW 4.3 mph6.9 kmh 30.00 in1015.9 mb - 0.00 in0.0 mm 0.05 in1.3 mm
09:57 AM 62.8°F17.1°C 59.7°F15.4°C 90% 4.9 mph N7.9 kmh N 4.3 mph6.9 kmh 30.01 in1016.3 mb - 0.00 in0.0 mm 0.05 in1.3 mm
09:52 AM 62.8°F17.1°C 60.1°F15.6°C 91% 4.3 mph 6.9 kmh 5.4 mph8.7 kmh 30.01 in1016.3 mb - 0.00 in0.0 mm 0.05 in1.3 mm
09:47 AM 62.2°F16.8°C 59.9°F15.5°C 92% 4.9 mph NNW7.9 kmh NNW 3.1 mph5.0 kmh 30.00 in1015.9 mb - 0.00 in0.0 mm 0.05 in1.3 mm
09:42 AM 61.9°F16.6°C 59.9°F15.5°C 93% 4.5 mph NW7.2 kmh NW 5.4 mph8.7 kmh 30.00 in1015.9 mb - 0.00 in0.0 mm 0.05 in1.3 mm
09:37 AM 61.2°F16.2°C 59.4°F15.2°C 94% 4.3 mph W6.9 kmh W 3.1 mph5.0 kmh 30.01 in1016.3 mb - 0.00 in0.0 mm 0.05 in1.3 mm
09:32 AM 60.8°F16.0°C 59.0°F15.0°C 94% 4.7 mph NW7.6 kmh NW 4.3 mph6.9 kmh 30.00 in1015.9 mb - 0.00 in0.0 mm 0.05 in1.3 mm
09:27 AM 60.8°F16.0°C 59.4°F15.2°C 95% 4.0 mph NW6.4 kmh NW 6.3 mph10.1 kmh 29.99 in1015.6 mb - 0.00 in0.0 mm 0.05 in1.3 mm
09:22 AM 60.4°F15.8°C 59.0°F15.0°C 95% 3.6 mph NW5.8 kmh NW 4.3 mph6.9 kmh 30.00 in1015.9 mb - 0.00 in0.0 mm 0.05 in1.3 mm
09:17 AM 60.3°F15.7°C 58.8°F14.9°C 95% 2.0 mph NNW3.2 kmh NNW 1.1 mph1.8 kmh 29.99 in1015.6 mb - 0.00 in0.0 mm 0.05 in1.3 mm
09:12 AM 60.1°F15.6°C 58.6°F14.8°C 95% 2.9 mph NW4.7 kmh NW 2.0 mph3.2 kmh 29.99 in1015.6 mb - 0.00 in0.0 mm 0.05 in1.3 mm
09:07 AM 59.9°F15.5°C 58.8°F14.9°C 96% 1.8 mph NW2.9 kmh NW 1.1 mph1.8 kmh 29.99 in1015.6 mb - 0.00 in0.0 mm 0.05 in1.3 mm
09:02 AM 59.7°F15.4°C 58.6°F14.8°C 96% 3.1 mph NW5.0 kmh NW 4.3 mph6.9 kmh 29.99 in1015.6 mb - 0.00 in0.0 mm 0.05 in1.3 mm
08:57 AM 59.5°F15.3°C 58.5°F14.7°C 96% 1.6 mph WNW2.6 kmh WNW 1.1 mph1.8 kmh 29.99 in1015.6 mb - 0.00 in0.0 mm 0.05 in1.3 mm
08:52 AM 59.5°F15.3°C 58.5°F14.7°C 96% 1.8 mph NW2.9 kmh NW 1.1 mph1.8 kmh 29.99 in1015.6 mb - 0.00 in0.0 mm 0.05 in1.3 mm
08:47 AM 59.5°F15.3°C 58.5°F14.7°C 96% 1.3 mph NW2.1 kmh NW 1.1 mph1.8 kmh 29.99 in1015.6 mb - 0.00 in0.0 mm 0.05 in1.3 mm
08:42 AM 59.2°F15.1°C 58.1°F14.5°C 96% 2.0 mph NW3.2 kmh NW 2.0 mph3.2 kmh 29.99 in1015.6 mb - 0.00 in0.0 mm 0.05 in1.3 mm
08:37 AM 58.8°F14.9°C 57.7°F14.3°C 96% 1.8 mph NW2.9 kmh NW 2.0 mph3.2 kmh 29.99 in1015.6 mb - 0.00 in0.0 mm 0.05 in1.3 mm
08:32 AM 58.6°F14.8°C 57.6°F14.2°C 96% 1.1 mph NW1.8 kmh NW 2.0 mph3.2 kmh 29.99 in1015.6 mb - 0.00 in0.0 mm 0.05 in1.3 mm
08:27 AM 58.6°F14.8°C 57.6°F14.2°C 96% 1.6 mph NNW2.6 kmh NNW 3.1 mph5.0 kmh 29.99 in1015.6 mb - 0.00 in0.0 mm 0.05 in1.3 mm
08:22 AM 58.6°F14.8°C 57.6°F14.2°C 96% 1.8 mph NNW2.9 kmh NNW 2.0 mph3.2 kmh 29.99 in1015.6 mb - 0.00 in0.0 mm 0.05 in1.3 mm
08:17 AM 58.5°F14.7°C 57.4°F14.1°C 96% 1.3 mph NW2.1 kmh NW 1.1 mph1.8 kmh 29.99 in1015.6 mb - 0.00 in0.0 mm 0.05 in1.3 mm
08:12 AM 58.5°F14.7°C 57.4°F14.1°C 96% 2.2 mph NW3.5 kmh NW 1.1 mph1.8 kmh 29.99 in1015.6 mb - 0.00 in0.0 mm 0.05 in1.3 mm
08:07 AM 58.5°F14.7°C 57.4°F14.1°C 96% 2.5 mph NNW4.0 kmh NNW 1.1 mph1.8 kmh 29.98 in1015.2 mb - 0.00 in0.0 mm 0.05 in1.3 mm
08:02 AM 58.5°F14.7°C 57.4°F14.1°C 96% 2.0 mph NNW3.2 kmh NNW 2.0 mph3.2 kmh 29.98 in1015.2 mb - 0.00 in0.0 mm 0.05 in1.3 mm
07:57 AM 58.5°F14.7°C 57.4°F14.1°C 96% 2.2 mph N3.5 kmh N 3.1 mph5.0 kmh 29.98 in1015.2 mb - 0.00 in0.0 mm 0.05 in1.3 mm
07:52 AM 58.6°F14.8°C 57.6°F14.2°C 96% 2.2 mph N3.5 kmh N 3.1 mph5.0 kmh 29.98 in1015.2 mb - 0.00 in0.0 mm 0.05 in1.3 mm
07:47 AM 58.6°F14.8°C 57.6°F14.2°C 96% 0.7 mph N1.1 kmh N -- 29.98 in1015.2 mb - 0.00 in0.0 mm 0.05 in1.3 mm
07:42 AM 58.6°F14.8°C 57.6°F14.2°C 96% 1.6 mph N2.6 kmh N 1.1 mph1.8 kmh 29.97 in1014.9 mb - 0.00 in0.0 mm 0.05 in1.3 mm
07:37 AM 58.5°F14.7°C 57.4°F14.1°C 96% 1.1 mph N1.8 kmh N 1.1 mph1.8 kmh 29.97 in1014.9 mb - 0.00 in0.0 mm 0.05 in1.3 mm
07:32 AM 58.6°F14.8°C 57.6°F14.2°C 96% 1.1 mph N1.8 kmh N 2.0 mph3.2 kmh 29.98 in1015.2 mb - 0.00 in0.0 mm 0.05 in1.3 mm
07:27 AM 58.6°F14.8°C 57.6°F14.2°C 96% 2.9 mph N4.7 kmh N 3.1 mph5.0 kmh 29.98 in1015.2 mb - 0.00 in0.0 mm 0.05 in1.3 mm
07:22 AM 58.6°F14.8°C 57.6°F14.2°C 96% 2.7 mph N4.3 kmh N 3.1 mph5.0 kmh 29.98 in1015.2 mb - 0.00 in0.0 mm 0.05 in1.3 mm
07:17 AM 58.6°F14.8°C 57.6°F14.2°C 96% 2.9 mph NW4.7 kmh NW 2.0 mph3.2 kmh 29.98 in1015.2 mb - 0.00 in0.0 mm 0.05 in1.3 mm
07:12 AM 58.8°F14.9°C 57.7°F14.3°C 96% 2.7 mph NNW4.3 kmh NNW 2.0 mph3.2 kmh 29.97 in1014.9 mb - 0.00 in0.0 mm 0.05 in1.3 mm
07:07 AM 58.6°F14.8°C 57.6°F14.2°C 96% 1.8 mph NNW2.9 kmh NNW 2.0 mph3.2 kmh 29.96 in1014.6 mb - 0.00 in0.0 mm 0.05 in1.3 mm
07:02 AM 58.6°F14.8°C 57.6°F14.2°C 96% 2.2 mph NNW3.5 kmh NNW 2.0 mph3.2 kmh 29.97 in1014.9 mb - 0.00 in0.0 mm 0.05 in1.3 mm
06:57 AM 58.8°F14.9°C 57.7°F14.3°C 96% 0.7 mph NNW1.1 kmh NNW -- 29.96 in1014.6 mb - 0.00 in0.0 mm 0.05 in1.3 mm
06:52 AM 58.8°F14.9°C 57.7°F14.3°C 96% 0.4 mph NNW0.6 kmh NNW -- 29.96 in1014.6 mb - 0.00 in0.0 mm 0.05 in1.3 mm
06:47 AM 58.6°F14.8°C 57.6°F14.2°C 96% 0.9 mph NNW1.4 kmh NNW 2.0 mph3.2 kmh 29.96 in1014.6 mb - 0.00 in0.0 mm 0.05 in1.3 mm
06:42 AM 58.6°F14.8°C 57.6°F14.2°C 96% 1.6 mph NNW2.6 kmh NNW 1.1 mph1.8 kmh 29.96 in1014.6 mb - 0.00 in0.0 mm 0.05 in1.3 mm
06:37 AM 58.6°F14.8°C 57.6°F14.2°C 96% 2.5 mph NNW4.0 kmh NNW 1.1 mph1.8 kmh 29.96 in1014.6 mb - 0.00 in0.0 mm 0.05 in1.3 mm
06:32 AM 58.6°F14.8°C 57.6°F14.2°C 96% 1.3 mph NNW2.1 kmh NNW 2.0 mph3.2 kmh 29.95 in1014.2 mb - 0.00 in0.0 mm 0.05 in1.3 mm
06:27 AM 58.6°F14.8°C 57.6°F14.2°C 96% 0.2 mph NNW0.3 kmh NNW -- 29.96 in1014.6 mb - 0.00 in0.0 mm 0.05 in1.3 mm
06:22 AM 58.6°F14.8°C 57.2°F14.0°C 95% 0.9 mph N1.4 kmh N 2.0 mph3.2 kmh 29.96 in1014.6 mb - 0.00 in0.0 mm 0.05 in1.3 mm
06:17 AM 58.8°F14.9°C 57.4°F14.1°C 95% 1.3 mph 2.1 kmh 2.0 mph3.2 kmh 29.96 in1014.6 mb - 0.00 in0.0 mm 0.05 in1.3 mm
06:12 AM 58.8°F14.9°C 57.7°F14.3°C 96% Calm Calm -- 29.95 in1014.2 mb - 0.00 in0.0 mm 0.05 in1.3 mm
06:07 AM 58.8°F14.9°C 57.4°F14.1°C 95% 0.7 mph 1.1 kmh -- 29.95 in1014.2 mb - 0.00 in0.0 mm 0.05 in1.3 mm
06:02 AM 58.8°F14.9°C 57.4°F14.1°C 95% 1.6 mph NNW2.6 kmh NNW 1.1 mph1.8 kmh 29.95 in1014.2 mb - 0.00 in0.0 mm 0.05 in1.3 mm
05:57 AM 58.8°F14.9°C 57.4°F14.1°C 95% 0.7 mph NNW1.1 kmh NNW -- 29.95 in1014.2 mb - 0.00 in0.0 mm 0.05 in1.3 mm
05:52 AM 58.8°F14.9°C 57.4°F14.1°C 95% 1.1 mph NNW1.8 kmh NNW 1.1 mph1.8 kmh 29.95 in1014.2 mb - 0.00 in0.0 mm 0.05 in1.3 mm
05:47 AM 58.8°F14.9°C 57.4°F14.1°C 95% 1.1 mph NW1.8 kmh NW -- 29.95 in1014.2 mb - 0.00 in0.0 mm 0.05 in1.3 mm
05:42 AM 58.8°F14.9°C 57.4°F14.1°C 95% 1.8 mph NW2.9 kmh NW 3.1 mph5.0 kmh 29.95 in1014.2 mb - 0.00 in0.0 mm 0.05 in1.3 mm
05:37 AM 58.8°F14.9°C 57.4°F14.1°C 95% 0.9 mph N1.4 kmh N -- 29.94 in1013.9 mb - 0.00 in0.0 mm 0.05 in1.3 mm
05:32 AM 58.8°F14.9°C 57.4°F14.1°C 95% 0.2 mph N0.3 kmh N -- 29.94 in1013.9 mb - 0.00 in0.0 mm 0.05 in1.3 mm
05:27 AM 58.8°F14.9°C 57.4°F14.1°C 95% 2.7 mph NNW4.3 kmh NNW 2.0 mph3.2 kmh 29.95 in1014.2 mb - 0.00 in0.0 mm 0.05 in1.3 mm
05:22 AM 58.8°F14.9°C 57.4°F14.1°C 95% 2.5 mph NNW4.0 kmh NNW 2.0 mph3.2 kmh 29.94 in1013.9 mb - 0.00 in0.0 mm 0.05 in1.3 mm
05:17 AM 58.8°F14.9°C 57.4°F14.1°C 95% 1.3 mph SSE2.1 kmh SSE 2.0 mph3.2 kmh 29.94 in1013.9 mb - 0.04 in1.0 mm 0.05 in1.3 mm
05:12 AM 58.8°F14.9°C 57.4°F14.1°C 95% 0.4 mph SSE0.6 kmh SSE -- 29.94 in1013.9 mb - 0.04 in1.0 mm 0.05 in1.3 mm
05:07 AM 58.8°F14.9°C 57.4°F14.1°C 95% 1.1 mph SSE1.8 kmh SSE 1.1 mph1.8 kmh 29.94 in1013.9 mb - 0.04 in1.0 mm 0.05 in1.3 mm
05:02 AM 58.8°F14.9°C 57.4°F14.1°C 95% 0.7 mph SSE1.1 kmh SSE -- 29.94 in1013.9 mb - 0.04 in1.0 mm 0.05 in1.3 mm
04:57 AM 58.8°F14.9°C 57.4°F14.1°C 95% 0.9 mph SSE1.4 kmh SSE 1.1 mph1.8 kmh 29.94 in1013.9 mb - 0.00 in0.0 mm 0.04 in1.0 mm
04:52 AM 58.8°F14.9°C 57.4°F14.1°C 95% 0.7 mph SSE1.1 kmh SSE -- 29.94 in1013.9 mb - 0.00 in0.0 mm 0.04 in1.0 mm
04:47 AM 58.6°F14.8°C 57.2°F14.0°C 95% Calm Calm -- 29.94 in1013.9 mb - 0.00 in0.0 mm 0.04 in1.0 mm
04:42 AM 58.8°F14.9°C 57.4°F14.1°C 95% 1.3 mph SSE2.1 kmh SSE -- 29.94 in1013.9 mb - 0.00 in0.0 mm 0.04 in1.0 mm
04:37 AM 58.6°F14.8°C 57.2°F14.0°C 95% 1.8 mph SSE2.9 kmh SSE 2.0 mph3.2 kmh 29.95 in1014.2 mb - 0.00 in0.0 mm 0.04 in1.0 mm
04:32 AM 58.6°F14.8°C 57.2°F14.0°C 95% 1.3 mph SE2.1 kmh SE 1.1 mph1.8 kmh 29.95 in1014.2 mb - 0.00 in0.0 mm 0.04 in1.0 mm
04:27 AM 58.6°F14.8°C 57.2°F14.0°C 95% 1.3 mph SE2.1 kmh SE 2.0 mph3.2 kmh 29.95 in1014.2 mb - 0.00 in0.0 mm 0.04 in1.0 mm
04:22 AM 58.6°F14.8°C 57.2°F14.0°C 95% 0.4 mph SE0.6 kmh SE 1.1 mph1.8 kmh 29.96 in1014.6 mb - 0.00 in0.0 mm 0.04 in1.0 mm
04:17 AM 58.5°F14.7°C 57.0°F13.9°C 95% 1.1 mph SE1.8 kmh SE -- 29.96 in1014.6 mb - 0.00 in0.0 mm 0.04 in1.0 mm
04:12 AM 58.5°F14.7°C 57.0°F13.9°C 95% 0.9 mph SE1.4 kmh SE -- 29.95 in1014.2 mb - 0.00 in0.0 mm 0.04 in1.0 mm
04:07 AM 58.5°F14.7°C 57.0°F13.9°C 95% 1.3 mph SE2.1 kmh SE -- 29.96 in1014.6 mb - 0.00 in0.0 mm 0.04 in1.0 mm
04:02 AM 58.5°F14.7°C 57.0°F13.9°C 95% 1.1 mph SE1.8 kmh SE -- 29.96 in1014.6 mb - 0.00 in0.0 mm 0.04 in1.0 mm
03:57 AM 58.3°F14.6°C 56.8°F13.8°C 95% 0.9 mph SE1.4 kmh SE -- 29.96 in1014.6 mb - 0.00 in0.0 mm 0.04 in1.0 mm
03:52 AM 58.3°F14.6°C 56.8°F13.8°C 95% 1.8 mph ESE2.9 kmh ESE 2.0 mph3.2 kmh 29.96 in1014.6 mb - 0.00 in0.0 mm 0.04 in1.0 mm
03:47 AM 58.1°F14.5°C 56.3°F13.5°C 94% 1.1 mph ESE1.8 kmh ESE 1.1 mph1.8 kmh 29.96 in1014.6 mb - 0.00 in0.0 mm 0.04 in1.0 mm
03:42 AM 57.9°F14.4°C 56.1°F13.4°C 94% 0.7 mph ESE1.1 kmh ESE 1.1 mph1.8 kmh 29.96 in1014.6 mb - 0.00 in0.0 mm 0.04 in1.0 mm
03:37 AM 58.1°F14.5°C 56.3°F13.5°C 94% 0.4 mph ESE0.6 kmh ESE 1.1 mph1.8 kmh 29.96 in1014.6 mb - 0.00 in0.0 mm 0.04 in1.0 mm
03:32 AM 58.3°F14.6°C 56.5°F13.6°C 94% 1.1 mph ESE1.8 kmh ESE 2.0 mph3.2 kmh 29.96 in1014.6 mb - 0.00 in0.0 mm 0.04 in1.0 mm
03:27 AM 58.3°F14.6°C 56.5°F13.6°C 94% 1.1 mph ESE1.8 kmh ESE 1.1 mph1.8 kmh 29.96 in1014.6 mb - 0.00 in0.0 mm 0.04 in1.0 mm
03:22 AM 58.3°F14.6°C 56.5°F13.6°C 94% 1.8 mph ESE2.9 kmh ESE 1.1 mph1.8 kmh 29.97 in1014.9 mb - 0.00 in0.0 mm 0.04 in1.0 mm
03:17 AM 58.1°F14.5°C 56.3°F13.5°C 94% 0.2 mph ESE0.3 kmh ESE 1.1 mph1.8 kmh 29.98 in1015.2 mb - 0.00 in0.0 mm 0.04 in1.0 mm
03:12 AM 58.3°F14.6°C 56.5°F13.6°C 94% 1.1 mph ESE1.8 kmh ESE -- 29.97 in1014.9 mb - 0.00 in0.0 mm 0.04 in1.0 mm
03:07 AM 58.1°F14.5°C 56.3°F13.5°C 94% 0.7 mph ESE1.1 kmh ESE -- 29.97 in1014.9 mb - 0.00 in0.0 mm 0.04 in1.0 mm
03:02 AM 58.1°F14.5°C 56.3°F13.5°C 94% 0.7 mph ESE1.1 kmh ESE -- 29.97 in1014.9 mb - 0.00 in0.0 mm 0.04 in1.0 mm
02:57 AM 58.3°F14.6°C 56.5°F13.6°C 94% 0.9 mph ESE1.4 kmh ESE -- 29.98 in1015.2 mb - 0.00 in0.0 mm 0.04 in1.0 mm
02:52 AM 58.1°F14.5°C 56.3°F13.5°C 94% 0.4 mph ESE0.6 kmh ESE 3.1 mph5.0 kmh 29.98 in1015.2 mb - 0.04 in1.0 mm 0.04 in1.0 mm
02:47 AM 58.1°F14.5°C 56.3°F13.5°C 94% 0.9 mph ESE1.4 kmh ESE -- 29.98 in1015.2 mb - 0.07 in1.8 mm 0.04 in1.0 mm
02:42 AM 58.1°F14.5°C 56.1°F13.4°C 93% 0.4 mph ESE0.6 kmh ESE 1.1 mph1.8 kmh 29.98 in1015.2 mb - 0.14 in3.6 mm 0.04 in1.0 mm
02:37 AM 58.3°F14.6°C 56.3°F13.5°C 93% 2.7 mph ESE4.3 kmh ESE 2.0 mph3.2 kmh 29.98 in1015.2 mb - 0.64 in16.3 mm 0.01 in0.3 mm
02:32 AM 58.3°F14.6°C 56.3°F13.5°C 93% 1.3 mph WSW2.1 kmh WSW -- 29.99 in1015.6 mb - 0.00 in0.0 mm 0.01 in0.3 mm
02:27 AM 58.1°F14.5°C 56.1°F13.4°C 93% 0.9 mph WNW1.4 kmh WNW 3.1 mph5.0 kmh 29.99 in1015.6 mb - 0.00 in0.0 mm 0.01 in0.3 mm
02:22 AM 58.1°F14.5°C 56.1°F13.4°C 93% 1.8 mph N2.9 kmh N 2.0 mph3.2 kmh 29.99 in1015.6 mb - 0.00 in0.0 mm 0.01 in0.3 mm
02:17 AM 58.1°F14.5°C 56.1°F13.4°C 93% 1.1 mph NE1.8 kmh NE 1.1 mph1.8 kmh 29.99 in1015.6 mb - 0.00 in0.0 mm 0.01 in0.3 mm
02:12 AM 57.9°F14.4°C 55.9°F13.3°C 93% 0.2 mph NE0.3 kmh NE -- 30.00 in1015.9 mb - 0.00 in0.0 mm 0.01 in0.3 mm
02:07 AM 57.9°F14.4°C 55.9°F13.3°C 93% 0.2 mph NE0.3 kmh NE 1.1 mph1.8 kmh 30.00 in1015.9 mb - 0.00 in0.0 mm 0.01 in0.3 mm
02:02 AM 57.9°F14.4°C 55.6°F13.1°C 92% Calm Calm -- 29.99 in1015.6 mb - 0.00 in0.0 mm 0.01 in0.3 mm
01:57 AM 57.9°F14.4°C 55.6°F13.1°C 92% 0.9 mph NE1.4 kmh NE 1.1 mph1.8 kmh 29.99 in1015.6 mb - 0.00 in0.0 mm 0.01 in0.3 mm
01:52 AM 57.9°F14.4°C 55.6°F13.1°C 92% 0.9 mph NE1.4 kmh NE -- 30.00 in1015.9 mb - 0.00 in0.0 mm 0.01 in0.3 mm
01:47 AM 57.9°F14.4°C 55.6°F13.1°C 92% 0.4 mph NE0.6 kmh NE 1.1 mph1.8 kmh 30.00 in1015.9 mb - 0.00 in0.0 mm 0.01 in0.3 mm
01:42 AM 57.9°F14.4°C 55.6°F13.1°C 92% 0.7 mph NE1.1 kmh NE -- 30.00 in1015.9 mb - 0.00 in0.0 mm 0.01 in0.3 mm
01:37 AM 57.9°F14.4°C 55.6°F13.1°C 92% 0.7 mph NE1.1 kmh NE -- 30.00 in1015.9 mb - 0.00 in0.0 mm 0.01 in0.3 mm
01:32 AM 57.9°F14.4°C 55.6°F13.1°C 92% 0.4 mph NE0.6 kmh NE -- 30.00 in1015.9 mb - 0.00 in0.0 mm 0.01 in0.3 mm
01:27 AM 57.7°F14.3°C 55.4°F13.0°C 92% 0.2 mph NE0.3 kmh NE 1.1 mph1.8 kmh 30.00 in1015.9 mb - 0.00 in0.0 mm 0.01 in0.3 mm
01:22 AM 57.7°F14.3°C 55.4°F13.0°C 92% 1.3 mph NE2.1 kmh NE 3.1 mph5.0 kmh 30.00 in1015.9 mb - 0.00 in0.0 mm 0.01 in0.3 mm
01:17 AM 57.7°F14.3°C 55.4°F13.0°C 92% 1.1 mph N1.8 kmh N 1.1 mph1.8 kmh 30.00 in1015.9 mb - 0.00 in0.0 mm 0.01 in0.3 mm
01:12 AM 57.7°F14.3°C 55.4°F13.0°C 92% 1.6 mph N2.6 kmh N 1.1 mph1.8 kmh 30.00 in1015.9 mb - 0.00 in0.0 mm 0.01 in0.3 mm
01:07 AM 57.6°F14.2°C 55.2°F12.9°C 92% 0.7 mph SE1.1 kmh SE -- 30.01 in1016.3 mb - 0.00 in0.0 mm 0.01 in0.3 mm
01:02 AM 57.6°F14.2°C 55.2°F12.9°C 92% 3.1 mph SE5.0 kmh SE 2.0 mph3.2 kmh 30.00 in1015.9 mb - 0.00 in0.0 mm 0.01 in0.3 mm
12:57 AM 57.6°F14.2°C 55.2°F12.9°C 92% 2.2 mph E3.5 kmh E 2.0 mph3.2 kmh 30.00 in1015.9 mb - 0.00 in0.0 mm 0.01 in0.3 mm
12:52 AM 57.4°F14.1°C 54.9°F12.7°C 91% 0.4 mph E0.6 kmh E 1.1 mph1.8 kmh 30.01 in1016.3 mb - 0.00 in0.0 mm 0.01 in0.3 mm
12:47 AM 57.4°F14.1°C 54.9°F12.7°C 91% 0.7 mph E1.1 kmh E 1.1 mph1.8 kmh 30.01 in1016.3 mb - 0.00 in0.0 mm 0.01 in0.3 mm
12:42 AM 57.4°F14.1°C 54.9°F12.7°C 91% 1.1 mph E1.8 kmh E -- 30.01 in1016.3 mb - 0.00 in0.0 mm 0.01 in0.3 mm
12:37 AM 57.4°F14.1°C 54.9°F12.7°C 91% 1.1 mph E1.8 kmh E 1.1 mph1.8 kmh 30.01 in1016.3 mb - 0.00 in0.0 mm 0.01 in0.3 mm
12:32 AM 57.4°F14.1°C 54.5°F12.5°C 90% 0.4 mph E0.6 kmh E -- 30.01 in1016.3 mb - 0.00 in0.0 mm 0.01 in0.3 mm
12:27 AM 57.4°F14.1°C 54.5°F12.5°C 90% 1.1 mph E1.8 kmh E -- 30.01 in1016.3 mb - 0.00 in0.0 mm 0.01 in0.3 mm
12:22 AM 57.4°F14.1°C 54.1°F12.3°C 89% 0.7 mph E1.1 kmh E 1.1 mph1.8 kmh 30.01 in1016.3 mb - 0.00 in0.0 mm 0.01 in0.3 mm
12:17 AM 57.4°F14.1°C 54.1°F12.3°C 89% 0.9 mph E1.4 kmh E 1.1 mph1.8 kmh 30.02 in1016.6 mb - 0.04 in1.0 mm 0.01 in0.3 mm
12:12 AM 57.6°F14.2°C 54.0°F12.2°C 88% 0.2 mph ENE0.3 kmh ENE -- 30.02 in1016.6 mb - 0.04 in1.0 mm 0.01 in0.3 mm
12:07 AM 57.6°F14.2°C 53.8°F12.1°C 87% 1.6 mph E2.6 kmh E 1.1 mph1.8 kmh 30.02 in1016.6 mb - 0.04 in1.0 mm 0.01 in0.3 mm
12:02 AM 57.7°F14.3°C 54.0°F12.2°C 87% 1.1 mph E1.8 kmh E 1.1 mph1.8 kmh 30.03 in1016.9 mb - 0.00 in0.0 mm 0.00 in0.0 mm